Time;durP1;ratioP1;P1;durP2;ratioP2;P2;SDS_P1;SDS_P2;PMS_P1;PMS_P2;Temp;Humidity;BMP_temperature;BMP_pressure;BME280_temperature;BME280_humidity;BME280_pressure;Samples;Min_cycle;Max_cycle;Signal;HPM_P1;HPM_P2
2021/04/22 00:00:48;;;;;;;8.57;5.50;;;;;21.70;101107.00;;;;2079468;28;20993;-68
2021/04/22 00:01:48;;;;;;;8.53;5.70;;;;;21.70;101128.00;;;;2076107;28;20652;-68
2021/04/22 00:02:48;;;;;;;6.70;5.00;;;;;21.70;101124.00;;;;2078877;28;20635;-68
2021/04/22 00:03:49;;;;;;;7.57;5.70;;;;;21.70;101123.00;;;;2070022;28;20221;-68
2021/04/22 00:04:49;;;;;;;8.00;5.77;;;;;21.70;101125.00;;;;2070467;28;20303;-68
2021/04/22 00:05:49;;;;;;;8.23;5.43;;;;;21.70;101130.00;;;;2079236;28;20221;-68
2021/04/22 00:06:50;;;;;;;8.83;5.17;;;;;21.70;101131.00;;;;2075561;28;20231;-67
2021/04/22 00:07:51;;;;;;;7.43;5.33;;;;;21.70;101136.00;;;;2062310;28;20219;-67
2021/04/22 00:08:51;;;;;;;6.67;4.97;;;;;21.70;101131.00;;;;2059243;28;20686;-68
2021/04/22 00:09:51;;;;;;;7.30;4.87;;;;;21.70;101133.00;;;;2078475;28;20259;-67
2021/04/22 00:10:52;;;;;;;7.70;5.03;;;;;21.70;101139.00;;;;2078592;28;20243;-67
2021/04/22 00:11:53;;;;;;;6.57;4.85;;;;;21.70;101132.00;;;;2070320;28;20226;-69
2021/04/22 00:12:53;;;;;;;7.00;4.23;;;;;21.70;101141.00;;;;2062410;28;20605;-68
2021/04/22 00:13:53;;;;;;;6.97;4.43;;;;;21.70;101137.00;;;;2066780;28;20222;-68
2021/04/22 00:14:54;;;;;;;9.20;5.10;;;;;21.50;101135.00;;;;2078874;28;20226;-67
2021/04/22 00:15:54;;;;;;;11.13;5.77;;;;;21.70;101143.00;;;;2078542;28;20223;-68
2021/04/22 00:16:54;;;;;;;6.13;4.80;;;;;21.70;101133.00;;;;2078537;28;20304;-68
2021/04/22 00:17:55;;;;;;;6.37;4.53;;;;;21.70;101131.00;;;;2070375;28;20221;-68
2021/04/22 00:18:56;;;;;;;6.47;4.87;;;;;21.70;101137.00;;;;2061959;28;20263;-68
2021/04/22 00:19:56;;;;;;;7.40;4.80;;;;;21.70;101133.00;;;;2067553;28;20465;-69
2021/04/22 00:20:56;;;;;;;7.27;4.47;;;;;21.70;101134.00;;;;2078631;28;20214;-68
2021/04/22 00:21:57;;;;;;;6.03;4.67;;;;;21.70;101128.00;;;;2069200;28;20223;-68
2021/04/22 00:22:57;;;;;;;6.70;4.60;;;;;21.70;101139.00;;;;2062577;28;20733;-68
2021/04/22 00:23:57;;;;;;;5.97;4.20;;;;;21.70;101141.00;;;;2064905;28;21081;-68
2021/04/22 00:24:58;;;;;;;6.37;4.47;;;;;21.70;101134.00;;;;2070287;28;20728;-67
2021/04/22 00:25:58;;;;;;;8.40;4.63;;;;;21.60;101135.00;;;;2074990;28;20215;-68
2021/04/22 00:26:58;;;;;;;6.57;4.43;;;;;21.60;101133.00;;;;2079108;28;20227;-68
2021/04/22 00:28:00;;;;;;;5.63;3.83;;;;;21.60;101139.00;;;;2078425;28;20341;-67
2021/04/22 00:29:00;;;;;;;7.78;4.50;;;;;21.70;101143.00;;;;2051444;28;20224;-68
2021/04/22 00:30:01;;;;;;;7.03;4.27;;;;;21.60;101141.00;;;;2059858;28;20216;-68
2021/04/22 00:31:02;;;;;;;5.70;3.70;;;;;21.60;101140.00;;;;2079061;28;20237;-68
2021/04/22 00:32:02;;;;;;;6.27;3.93;;;;;21.60;101144.00;;;;2070231;28;20216;-68
2021/04/22 00:33:23;;;;;;;7.30;4.23;;;;;21.60;101143.00;;;;2070279;28;20226;-68
2021/04/22 00:34:23;;;;;;;4.85;3.95;;;;;21.60;101148.00;;;;2076196;28;20286;-68
2021/04/22 00:35:23;;;;;;;6.40;4.43;;;;;21.60;101145.00;;;;2078256;28;20215;-68
2021/04/22 00:36:24;;;;;;;5.70;3.90;;;;;21.60;101139.00;;;;2078146;28;20199;-68
2021/04/22 00:37:24;;;;;;;5.03;3.73;;;;;21.60;101143.00;;;;2062145;28;20302;-68
2021/04/22 00:38:24;;;;;;;5.83;3.43;;;;;21.60;101151.00;;;;2067764;28;20218;-68
2021/04/22 00:39:25;;;;;;;7.20;4.30;;;;;21.60;101154.00;;;;2070192;28;20238;-68
2021/04/22 00:40:26;;;;;;;6.40;3.97;;;;;21.60;101143.00;;;;2077891;28;20214;-68
2021/04/22 00:41:26;;;;;;;5.65;3.40;;;;;21.60;101146.00;;;;2079191;28;20210;-68
2021/04/22 00:42:27;;;;;;;7.03;4.67;;;;;21.60;101149.00;;;;2078926;28;20218;-68
2021/04/22 00:43:27;;;;;;;5.20;3.87;;;;;21.60;101150.00;;;;2078628;28;20226;-68
2021/04/22 00:44:27;;;;;;;6.53;3.83;;;;;21.60;101137.00;;;;2064595;28;20227;-68
2021/04/22 00:45:28;;;;;;;6.80;4.10;;;;;21.60;101150.00;;;;2059264;28;20226;-68
2021/04/22 00:46:28;;;;;;;5.77;3.67;;;;;21.60;101149.00;;;;2068099;28;20345;-68
2021/04/22 00:47:28;;;;;;;5.70;3.77;;;;;21.60;101149.00;;;;2062372;28;20215;-68
2021/04/22 00:48:29;;;;;;;6.00;3.53;;;;;21.60;101136.00;;;;2067091;28;20780;-68
2021/04/22 00:49:29;;;;;;;7.43;3.90;;;;;21.60;101153.00;;;;2070120;28;20733;-68
2021/04/22 00:50:31;;;;;;;5.17;3.30;;;;;21.60;101157.00;;;;2070388;28;20306;-68
2021/04/22 00:51:31;;;;;;;6.20;3.60;;;;;21.60;101147.00;;;;2076709;28;20230;-68
2021/04/22 00:52:32;;;;;;;6.73;4.33;;;;;21.60;101150.00;;;;2079410;28;20210;-68
2021/04/22 00:53:32;;;;;;;5.30;3.90;;;;;21.60;101150.00;;;;2077011;28;20221;-67
2021/04/22 00:54:33;;;;;;;5.13;3.30;;;;;21.60;101155.00;;;;2062151;28;20232;-68
2021/04/22 00:55:33;;;;;;;4.83;3.23;;;;;21.60;101158.00;;;;2061836;28;20246;-68
2021/04/22 00:56:33;;;;;;;5.33;3.60;;;;;21.50;101154.00;;;;2066605;28;20271;-68
2021/04/22 00:57:34;;;;;;;6.20;3.70;;;;;21.50;101157.00;;;;2078434;28;20855;-68
2021/04/22 00:58:34;;;;;;;5.20;3.73;;;;;21.50;101153.00;;;;2075309;28;20680;-68
2021/04/22 00:59:35;;;;;;;6.60;3.77;;;;;21.50;101165.00;;;;2078115;28;20222;-68
2021/04/22 01:00:41;;;;;;;6.00;3.50;;;;;21.50;101156.00;;;;2077079;28;20747;-67
2021/04/22 01:01:41;;;;;;;4.82;3.40;;;;;21.50;101153.00;;;;2070717;28;20347;-69
2021/04/22 01:02:41;;;;;;;4.50;3.10;;;;;21.50;101150.00;;;;2078459;28;20712;-68
2021/04/22 01:03:42;;;;;;;4.67;3.00;;;;;21.50;101164.00;;;;2077190;28;20663;-67
2021/04/22 01:04:45;;;;;;;4.23;3.03;;;;;21.50;101161.00;;;;2077604;28;20607;-67
2021/04/22 01:05:50;;;;;;;5.78;3.45;;;;;21.50;101161.00;;;;2077312;28;20222;-68
2021/04/22 01:06:51;;;;;;;6.03;3.20;;;;;21.50;101161.00;;;;2061526;28;20212;-68
2021/04/22 01:07:51;;;;;;;6.13;3.80;;;;;21.50;101164.00;;;;2061634;28;20269;-67
2021/04/22 01:08:51;;;;;;;6.97;3.73;;;;;21.50;101152.00;;;;2077390;28;20255;-68
2021/04/22 01:09:52;;;;;;;4.60;3.23;;;;;21.50;101159.00;;;;2077753;28;20210;-69
2021/04/22 01:10:52;;;;;;;4.30;3.00;;;;;21.50;101154.00;;;;2078355;28;20214;-68
2021/04/22 01:11:55;;;;;;;5.87;3.73;;;;;21.50;101161.00;;;;2077207;28;20214;-68
2021/04/22 01:12:55;;;;;;;5.35;3.20;;;;;21.50;101159.00;;;;2069671;28;20212;-68
2021/04/22 01:13:55;;;;;;;5.03;3.30;;;;;21.50;101163.00;;;;2061321;28;20736;-68
2021/04/22 01:14:56;;;;;;;4.23;3.00;;;;;21.50;101168.00;;;;2061890;28;20226;-68
2021/04/22 01:15:56;;;;;;;5.70;3.53;;;;;21.50;101167.00;;;;2070249;28;20202;-68
2021/04/22 01:16:56;;;;;;;6.30;3.40;;;;;21.50;101165.00;;;;2077491;28;20238;-67
2021/04/22 01:17:57;;;;;;;5.30;2.73;;;;;21.50;101161.00;;;;2078252;28;20349;-68
2021/04/22 01:18:58;;;;;;;5.70;3.20;;;;;21.50;101167.00;;;;2078345;28;20241;-68
2021/04/22 01:19:58;;;;;;;5.20;3.17;;;;;21.50;101162.00;;;;2078139;28;20229;-68
2021/04/22 01:20:58;;;;;;;5.00;3.20;;;;;21.50;101162.00;;;;2070257;28;20217;-68
2021/04/22 01:21:59;;;;;;;5.03;2.83;;;;;21.50;101170.00;;;;2069896;28;20228;-68
2021/04/22 01:23:00;;;;;;;8.07;3.17;;;;;21.40;101167.00;;;;2069929;28;20302;-67
2021/04/22 01:24:00;;;;;;;6.13;3.13;;;;;21.40;101175.00;;;;2057570;28;20636;-69
2021/04/22 01:25:01;;;;;;;4.67;2.80;;;;;21.40;101167.00;;;;2069921;28;20211;-68
2021/04/22 01:26:01;;;;;;;4.77;2.70;;;;;21.40;101176.00;;;;2076610;28;20237;-67
2021/04/22 01:27:02;;;;;;;7.70;3.33;;;;;21.40;101161.00;;;;2078753;28;20210;-68
2021/04/22 01:28:03;;;;;;;5.40;3.07;;;;;21.50;101178.00;;;;2070149;28;20222;-68
2021/04/22 01:29:04;;;;;;;4.63;3.00;;;;;21.40;101178.00;;;;2070186;28;20246;-68
2021/04/22 01:30:09;;;;;;;3.50;2.50;;;;;21.40;101162.00;;;;2069959;28;20702;-68
2021/04/22 01:31:10;;;;;;;5.60;3.17;;;;;21.40;101174.00;;;;2059458;28;20994;-68
2021/04/22 01:32:10;;;;;;;5.20;3.00;;;;;21.40;101172.00;;;;2078448;28;20214;-68
2021/04/22 01:33:14;;;;;;;5.37;2.90;;;;;21.40;101170.00;;;;2078606;28;20215;-68
2021/04/22 01:34:15;;;;;;;5.80;2.83;;;;;21.40;101170.00;;;;2077888;28;20678;-68
2021/04/22 01:35:18;;;;;;;5.03;2.70;;;;;21.40;101171.00;;;;2062070;28;20219;-68
2021/04/22 01:36:18;;;;;;;4.25;2.80;;;;;21.40;101179.00;;;;2070335;28;20222;-69
2021/04/22 01:37:19;;;;;;;6.20;2.80;;;;;21.40;101174.00;;;;2078968;28;20727;-68
2021/04/22 01:38:19;;;;;;;4.27;2.47;;;;;21.40;101168.00;;;;2078497;28;20827;-68
2021/04/22 01:39:19;;;;;;;5.50;2.73;;;;;21.40;101170.00;;;;2069547;28;20659;-68
2021/04/22 01:40:20;;;;;;;5.50;3.03;;;;;21.40;101173.00;;;;2069634;28;20218;-68
2021/04/22 01:41:20;;;;;;;5.17;3.07;;;;;21.40;101171.00;;;;2085395;28;20239;-68
2021/04/22 01:42:21;;;;;;;5.93;3.47;;;;;21.40;101179.00;;;;2078438;28;20764;-68
2021/04/22 01:43:21;;;;;;;4.10;2.60;;;;;21.40;101177.00;;;;2078637;28;20203;-68
2021/04/22 01:44:21;;;;;;;5.73;2.80;;;;;21.40;101168.00;;;;2077930;28;20987;-68
2021/04/22 01:45:22;;;;;;;6.10;3.27;;;;;21.30;101169.00;;;;2078775;28;20212;-67
2021/04/22 01:46:22;;;;;;;3.93;2.50;;;;;21.30;101175.00;;;;2070059;28;20254;-66
2021/04/22 01:47:22;;;;;;;4.10;2.70;;;;;21.30;101181.00;;;;2070012;28;20742;-68
2021/04/22 01:48:25;;;;;;;5.43;3.10;;;;;21.40;101168.00;;;;2076514;28;20310;-68
2021/04/22 01:49:25;;;;;;;3.72;2.38;;;;;21.40;101170.00;;;;2079035;28;20214;-67
2021/04/22 01:50:27;;;;;;;6.90;2.97;;;;;21.40;101168.00;;;;2078866;28;20210;-67
2021/04/22 01:51:28;;;;;;;6.55;2.78;;;;;21.40;101171.00;;;;2070895;28;20637;-67
2021/04/22 01:52:28;;;;;;;5.73;2.77;;;;;21.40;101171.00;;;;2079646;28;20218;-67
2021/04/22 01:53:28;;;;;;;5.83;2.73;;;;;21.30;101172.00;;;;2075469;28;20751;-67
2021/04/22 01:54:29;;;;;;;5.23;2.80;;;;;21.30;101171.00;;;;2079149;28;20620;-67
2021/04/22 01:55:31;;;;;;;6.20;2.67;;;;;21.30;101146.00;;;;2079826;28;20221;-67
2021/04/22 01:56:31;;;;;;;5.55;3.00;;;;;21.30;101172.00;;;;2079732;28;20615;-66
2021/04/22 01:57:32;;;;;;;4.90;2.53;;;;;21.30;101173.00;;;;2079780;28;20266;-67
2021/04/22 01:58:32;;;;;;;6.23;3.07;;;;;21.30;101170.00;;;;2080369;28;20689;-67
2021/04/22 01:59:33;;;;;;;7.03;2.77;;;;;21.30;101180.00;;;;2079661;28;20218;-67
2021/04/22 02:00:35;;;;;;;4.77;2.50;;;;;21.30;101172.00;;;;2079725;28;20223;-67
2021/04/22 02:01:35;;;;;;;6.72;2.85;;;;;21.20;101184.00;;;;2075815;28;20270;-67
2021/04/22 02:02:36;;;;;;;5.70;2.43;;;;;21.20;101175.00;;;;2079477;28;20210;-67
2021/04/22 02:03:36;;;;;;;6.20;3.00;;;;;21.20;101179.00;;;;2079656;28;20299;-67
2021/04/22 02:04:36;;;;;;;5.73;2.40;;;;;21.20;101188.00;;;;2080119;28;20445;-67
2021/04/22 02:05:37;;;;;;;5.63;3.20;;;;;21.20;101191.00;;;;2079847;28;20610;-67
2021/04/22 02:06:38;;;;;;;5.50;2.50;;;;;21.20;101181.00;;;;2071356;28;20226;-67
2021/04/22 02:07:38;;;;;;;5.07;2.40;;;;;21.20;101183.00;;;;2079461;28;20219;-67
2021/04/22 02:08:38;;;;;;;5.60;2.70;;;;;21.20;101181.00;;;;2080165;28;20345;-67
2021/04/22 02:09:39;;;;;;;5.10;2.73;;;;;21.20;101188.00;;;;2079405;28;20651;-67
2021/04/22 02:10:39;;;;;;;6.20;2.40;;;;;21.20;101185.00;;;;2079680;28;20627;-69
2021/04/22 02:11:40;;;;;;;6.10;2.47;;;;;21.20;101190.00;;;;2076917;28;20221;-67
2021/04/22 02:12:40;;;;;;;5.67;2.50;;;;;21.20;101190.00;;;;2080318;28;20779;-67
2021/04/22 02:13:40;;;;;;;5.80;2.70;;;;;21.10;101186.00;;;;2070843;28;20771;-67
2021/04/22 02:14:41;;;;;;;5.30;2.47;;;;;21.20;101189.00;;;;2071367;28;20269;-67
2021/04/22 02:15:41;;;;;;;7.20;3.10;;;;;21.10;101191.00;;;;2079609;28;20324;-68
2021/04/22 02:16:41;;;;;;;5.97;2.70;;;;;21.10;101197.00;;;;2071307;28;20231;-67
2021/04/22 02:17:43;;;;;;;5.50;2.30;;;;;21.10;101193.00;;;;2079618;28;20273;-67
2021/04/22 02:18:43;;;;;;;4.45;2.60;;;;;21.20;101204.00;;;;2080204;28;20306;-67
2021/04/22 02:19:43;;;;;;;6.27;2.53;;;;;21.10;101198.00;;;;2079202;28;20226;-67
2021/04/22 02:20:44;;;;;;;5.70;3.10;;;;;21.10;101202.00;;;;2079565;28;20211;-67
2021/04/22 02:21:44;;;;;;;4.77;2.10;;;;;21.10;101202.00;;;;2079513;28;20214;-67
2021/04/22 02:22:45;;;;;;;8.07;2.73;;;;;21.10;101203.00;;;;2079671;28;20241;-67
2021/04/22 02:23:45;;;;;;;6.13;2.50;;;;;21.10;101208.00;;;;2078103;28;20697;-67
2021/04/22 02:24:46;;;;;;;6.10;2.40;;;;;21.10;101193.00;;;;2075724;28;20215;-67
2021/04/22 02:25:47;;;;;;;6.23;2.57;;;;;21.10;101200.00;;;;2079187;28;20218;-67
2021/04/22 02:26:47;;;;;;;5.78;2.45;;;;;21.10;101199.00;;;;2079551;28;20229;-67
2021/04/22 02:27:47;;;;;;;4.93;2.80;;;;;21.10;101199.00;;;;2079390;28;20306;-67
2021/04/22 02:28:48;;;;;;;5.63;2.50;;;;;21.10;101196.00;;;;2079588;28;20211;-67
2021/04/22 02:29:48;;;;;;;6.93;2.37;;;;;21.10;101197.00;;;;2080019;28;20769;-67
2021/04/22 02:30:48;;;;;;;6.40;2.83;;;;;21.10;101201.00;;;;2080162;28;20615;-67
2021/04/22 02:31:49;;;;;;;5.30;2.33;;;;;21.10;101203.00;;;;2080062;28;20576;-67
2021/04/22 02:32:49;;;;;;;5.43;2.00;;;;;21.10;101202.00;;;;2080224;28;20221;-67
2021/04/22 02:33:53;;;;;;;3.70;2.23;;;;;21.10;101203.00;;;;2078744;28;20304;-67
2021/04/22 02:34:53;;;;;;;5.88;2.60;;;;;21.10;101201.00;;;;2080148;28;20245;-67
2021/04/22 02:35:53;;;;;;;5.47;2.70;;;;;21.10;101196.00;;;;2080262;28;20343;-67
2021/04/22 02:36:54;;;;;;;5.23;2.40;;;;;21.10;101203.00;;;;2080194;28;20217;-67
2021/04/22 02:37:54;;;;;;;6.90;2.57;;;;;21.10;101203.00;;;;2079983;28;20213;-67
2021/04/22 02:38:55;;;;;;;5.50;2.47;;;;;21.00;101210.00;;;;2079927;28;20223;-67
2021/04/22 02:39:55;;;;;;;5.20;2.80;;;;;21.00;101214.00;;;;2080002;28;20222;-67
2021/04/22 02:40:55;;;;;;;6.00;2.80;;;;;21.00;101208.00;;;;2080205;28;20210;-67
2021/04/22 02:41:56;;;;;;;5.40;2.27;;;;;21.00;101204.00;;;;2079868;28;20251;-67
2021/04/22 02:42:57;;;;;;;5.17;2.33;;;;;21.00;101213.00;;;;2079310;28;20300;-67
2021/04/22 02:43:57;;;;;;;4.57;2.28;;;;;21.00;101211.00;;;;2078486;28;20619;-67
2021/04/22 02:44:58;;;;;;;4.13;2.30;;;;;21.00;101201.00;;;;2070934;28;20329;-67
2021/04/22 02:45:58;;;;;;;5.27;2.30;;;;;21.00;101204.00;;;;2059926;28;20219;-69
2021/04/22 02:46:58;;;;;;;4.70;2.57;;;;;21.00;101209.00;;;;2062419;28;20237;-68
2021/04/22 02:47:59;;;;;;;6.00;2.77;;;;;21.00;101193.00;;;;2062972;28;20231;-68
2021/04/22 02:48:59;;;;;;;5.20;2.33;;;;;21.00;101200.00;;;;2067598;28;20296;-67
2021/04/22 02:50:00;;;;;;;9.57;2.90;;;;;21.00;101204.00;;;;2070482;28;20318;-67
2021/04/22 02:51:00;;;;;;;6.50;2.40;;;;;21.00;101205.00;;;;2079492;28;20219;-67
2021/04/22 02:52:01;;;;;;;5.30;2.93;;;;;21.00;101206.00;;;;2079360;28;20301;-67
2021/04/22 02:53:02;;;;;;;4.67;2.47;;;;;21.00;101206.00;;;;2079227;28;20218;-67
2021/04/22 02:54:02;;;;;;;5.57;2.17;;;;;21.00;101210.00;;;;2076699;28;20221;-67
2021/04/22 02:55:03;;;;;;;4.87;2.33;;;;;21.00;101214.00;;;;2079895;28;20696;-67
2021/04/22 02:56:04;;;;;;;5.47;2.22;;;;;21.00;101210.00;;;;2079011;28;20217;-67
2021/04/22 02:57:05;;;;;;;4.43;2.27;;;;;21.00;101202.00;;;;2079340;28;20240;-68
2021/04/22 02:58:05;;;;;;;4.70;2.50;;;;;21.00;101214.00;;;;2079336;28;21071;-68
2021/04/22 02:59:05;;;;;;;5.10;2.50;;;;;20.70;101217.00;;;;2079072;28;20214;-67
2021/04/22 03:00:12;;;;;;;6.10;2.40;;;;;21.00;101214.00;;;;2080081;28;20217;-67
2021/04/22 03:01:12;;;;;;;5.80;2.65;;;;;20.90;101210.00;;;;2078970;28;20905;-67
2021/04/22 03:02:13;;;;;;;4.83;2.40;;;;;21.00;101212.00;;;;2079019;28;20218;-68
2021/04/22 03:03:13;;;;;;;8.60;2.60;;;;;21.00;101214.00;;;;2078800;28;20798;-67
2021/04/22 03:04:13;;;;;;;3.73;2.47;;;;;21.00;101215.00;;;;2074025;28;20426;-67
2021/04/22 03:05:14;;;;;;;4.53;2.37;;;;;21.00;101212.00;;;;2079202;28;20221;-67
2021/04/22 03:06:15;;;;;;;5.43;2.50;;;;;21.00;101212.00;;;;2079895;28;20580;-67
2021/04/22 03:07:15;;;;;;;5.07;2.37;;;;;21.00;101212.00;;;;2070874;28;20208;-67
2021/04/22 03:08:15;;;;;;;5.93;3.00;;;;;20.90;101216.00;;;;2070781;28;20628;-67
2021/04/22 03:09:16;;;;;;;3.70;2.10;;;;;20.90;101213.00;;;;2078938;28;20632;-67
2021/04/22 03:10:18;;;;;;;4.80;2.97;;;;;20.90;101215.00;;;;2081188;28;20211;-68
2021/04/22 03:11:18;;;;;;;5.78;2.70;;;;;20.90;101224.00;;;;2079465;28;20221;-68
2021/04/22 03:12:18;;;;;;;5.30;2.70;;;;;20.90;101213.00;;;;2070617;28;20596;-67
2021/04/22 03:13:19;;;;;;;7.43;2.47;;;;;20.90;101224.00;;;;2070787;28;20264;-67
2021/04/22 03:14:19;;;;;;;7.37;2.67;;;;;20.90;101225.00;;;;2077752;28;20276;-67
2021/04/22 03:15:20;;;;;;;5.00;2.60;;;;;20.90;101226.00;;;;2079673;28;20264;-67
2021/04/22 03:16:22;;;;;;;6.90;2.90;;;;;20.90;101221.00;;;;2078866;28;20280;-67
2021/04/22 03:17:23;;;;;;;8.15;3.05;;;;;20.90;101218.00;;;;2076806;28;20464;-67
2021/04/22 03:18:23;;;;;;;6.50;3.20;;;;;20.90;101221.00;;;;2072583;28;20213;-67
2021/04/22 03:19:23;;;;;;;5.10;2.30;;;;;20.90;101218.00;;;;2079005;28;20241;-68
2021/04/22 03:20:24;;;;;;;6.33;2.60;;;;;20.90;101220.00;;;;2079052;28;20198;-67
2021/04/22 03:21:24;;;;;;;5.50;2.50;;;;;20.90;101220.00;;;;2078883;28;20217;-67
2021/04/22 03:22:24;;;;;;;4.90;2.53;;;;;20.90;101216.00;;;;2078955;28;20237;-67
2021/04/22 03:23:25;;;;;;;6.17;2.70;;;;;20.90;101217.00;;;;2079505;28;20305;-67
2021/04/22 03:24:25;;;;;;;5.40;2.40;;;;;20.90;101219.00;;;;2078604;28;20206;-67
2021/04/22 03:25:26;;;;;;;6.20;2.50;;;;;20.80;101204.00;;;;2078469;28;20221;-67
2021/04/22 03:26:26;;;;;;;5.80;2.77;;;;;20.90;101225.00;;;;2062586;28;20255;-67
2021/04/22 03:27:27;;;;;;;4.10;2.47;;;;;20.90;101224.00;;;;2062682;28;20196;-67
2021/04/22 03:28:28;;;;;;;6.22;3.00;;;;;20.90;101218.00;;;;2078366;28;20598;-67
2021/04/22 03:29:28;;;;;;;4.97;2.40;;;;;20.90;101222.00;;;;2079447;28;20218;-67
2021/04/22 03:30:30;;;;;;;5.80;2.90;;;;;20.90;101220.00;;;;2079679;28;20209;-67
2021/04/22 03:31:30;;;;;;;4.78;2.45;;;;;20.80;101214.00;;;;2078976;28;20218;-67
2021/04/22 03:32:31;;;;;;;6.00;2.90;;;;;20.80;101218.00;;;;2078721;28;20573;-67
2021/04/22 03:33:31;;;;;;;4.93;2.57;;;;;20.80;101219.00;;;;2079165;28;20592;-67
2021/04/22 03:34:31;;;;;;;6.40;2.60;;;;;20.80;101224.00;;;;2078908;28;20584;-67
2021/04/22 03:35:32;;;;;;;6.50;2.87;;;;;20.80;101219.00;;;;2079562;28;20627;-67
2021/04/22 03:36:32;;;;;;;5.30;2.70;;;;;20.90;101224.00;;;;2078963;28;20222;-67
2021/04/22 03:37:32;;;;;;;7.07;2.93;;;;;20.80;101228.00;;;;2078828;28;20241;-67
2021/04/22 03:38:33;;;;;;;6.27;2.33;;;;;20.80;101222.00;;;;2070443;28;20687;-67
2021/04/22 03:39:33;;;;;;;4.20;2.30;;;;;20.80;101227.00;;;;2070622;28;20219;-67
2021/04/22 03:40:33;;;;;;;6.13;3.00;;;;;20.80;101229.00;;;;2079157;28;20340;-67
2021/04/22 03:41:34;;;;;;;8.00;3.10;;;;;20.80;101231.00;;;;2078610;28;20344;-67
2021/04/22 03:42:34;;;;;;;9.13;3.30;;;;;20.80;101229.00;;;;2078881;28;20226;-67
2021/04/22 03:43:34;;;;;;;8.03;2.80;;;;;20.80;101226.00;;;;2079467;28;20616;-68
2021/04/22 03:44:35;;;;;;;6.53;2.87;;;;;20.80;101228.00;;;;2079245;28;20210;-67
2021/04/22 03:45:35;;;;;;;5.10;3.13;;;;;20.80;101222.00;;;;2078916;28;20217;-67
2021/04/22 03:46:35;;;;;;;4.77;2.83;;;;;20.80;101225.00;;;;2078859;28;20210;-67
2021/04/22 03:47:36;;;;;;;4.90;2.60;;;;;20.80;101229.00;;;;2078848;28;20214;-67
2021/04/22 03:48:36;;;;;;;5.57;2.80;;;;;20.80;101225.00;;;;2078199;28;20312;-67
2021/04/22 03:49:38;;;;;;;5.40;2.70;;;;;20.80;101226.00;;;;2078659;28;20265;-67
2021/04/22 03:50:38;;;;;;;4.53;2.60;;;;;20.80;101229.00;;;;2066458;28;20215;-67
2021/04/22 03:51:38;;;;;;;4.70;2.73;;;;;20.80;101209.00;;;;2070539;28;20298;-67
2021/04/22 03:52:39;;;;;;;7.90;2.97;;;;;20.80;101217.00;;;;2070314;28;20210;-67
2021/04/22 03:53:39;;;;;;;4.73;2.10;;;;;20.80;101220.00;;;;2078538;28;20300;-67
2021/04/22 03:54:39;;;;;;;4.60;2.40;;;;;20.80;101217.00;;;;2068417;28;20314;-67
2021/04/22 03:55:40;;;;;;;5.40;2.20;;;;;20.80;101219.00;;;;2075682;28;20220;-67
2021/04/22 03:56:40;;;;;;;5.90;3.03;;;;;20.80;101221.00;;;;2079204;28;20221;-67
2021/04/22 03:57:40;;;;;;;6.30;3.10;;;;;20.80;101222.00;;;;2070623;28;20269;-67
2021/04/22 03:58:41;;;;;;;5.07;2.83;;;;;20.70;101225.00;;;;2070603;28;20685;-67
2021/04/22 03:59:41;;;;;;;5.10;2.50;;;;;20.80;101216.00;;;;2072057;28;20772;-67
2021/04/22 04:00:41;;;;;;;5.80;2.90;;;;;20.80;101225.00;;;;2078975;28;20586;-67
2021/04/22 04:01:42;;;;;;;4.33;2.57;;;;;20.80;101220.00;;;;2079142;28;20214;-67
2021/04/22 04:02:42;;;;;;;5.47;2.40;;;;;20.80;101224.00;;;;2079300;28;20217;-67
2021/04/22 04:03:43;;;;;;;5.10;2.90;;;;;20.80;101229.00;;;;2078432;28;20301;-67
2021/04/22 04:04:43;;;;;;;6.73;2.67;;;;;20.70;101224.00;;;;2077992;28;20217;-67
2021/04/22 04:05:43;;;;;;;4.87;2.73;;;;;20.70;101222.00;;;;2075019;28;20210;-67
2021/04/22 04:06:44;;;;;;;6.43;3.23;;;;;20.80;101230.00;;;;2070369;28;20225;-67
2021/04/22 04:07:44;;;;;;;5.27;2.77;;;;;20.70;101214.00;;;;2078376;28;20214;-67
2021/04/22 04:08:44;;;;;;;4.40;2.63;;;;;20.70;101220.00;;;;2077956;28;20249;-67
2021/04/22 04:09:45;;;;;;;7.00;2.80;;;;;20.80;101227.00;;;;2070054;28;20301;-67
2021/04/22 04:10:45;;;;;;;4.10;2.50;;;;;20.70;101222.00;;;;2070251;28;20214;-68
2021/04/22 04:11:45;;;;;;;4.73;2.93;;;;;20.70;101228.00;;;;2078198;28;20219;-68
2021/04/22 04:12:46;;;;;;;5.23;3.17;;;;;20.70;101230.00;;;;2077730;28;20218;-68
2021/04/22 04:13:46;;;;;;;5.73;2.77;;;;;20.70;101220.00;;;;2069720;28;20206;-68
2021/04/22 04:14:46;;;;;;;5.10;3.03;;;;;20.70;101224.00;;;;2078487;28;20210;-68
2021/04/22 04:15:48;;;;;;;5.37;2.63;;;;;20.60;101227.00;;;;2078840;28;20284;-67
2021/04/22 04:16:48;;;;;;;5.53;2.80;;;;;20.70;101226.00;;;;2077980;28;20225;-67
2021/04/22 04:17:49;;;;;;;4.53;2.20;;;;;20.70;101230.00;;;;2078518;28;20300;-67
2021/04/22 04:18:49;;;;;;;4.87;2.73;;;;;20.70;101228.00;;;;2078289;28;20300;-67
2021/04/22 04:19:50;;;;;;;7.93;3.30;;;;;20.70;101224.00;;;;2078701;28;20221;-67
2021/04/22 04:20:50;;;;;;;7.17;3.13;;;;;20.70;101230.00;;;;2078247;28;20284;-67
2021/04/22 04:21:51;;;;;;;6.50;2.83;;;;;20.70;101234.00;;;;2078224;28;20234;-67
2021/04/22 04:22:51;;;;;;;6.77;2.90;;;;;20.70;101235.00;;;;2078736;28;20206;-67
2021/04/22 04:23:51;;;;;;;4.83;2.60;;;;;20.70;101227.00;;;;2077792;28;20213;-67
2021/04/22 04:24:51;;;;;;;7.70;3.20;;;;;20.70;101239.00;;;;2078660;28;20248;-67
2021/04/22 04:25:52;;;;;;;6.70;3.10;;;;;20.70;101245.00;;;;2070447;28;20272;-68
2021/04/22 04:26:52;;;;;;;5.10;2.50;;;;;20.70;101244.00;;;;2078232;28;20206;-67
2021/04/22 04:27:53;;;;;;;5.70;2.50;;;;;20.60;101236.00;;;;2078374;28;20634;-67
2021/04/22 04:28:53;;;;;;;5.17;2.73;;;;;20.60;101243.00;;;;2073978;28;20209;-67
2021/04/22 04:29:53;;;;;;;5.63;2.83;;;;;20.60;101248.00;;;;2075015;28;20707;-68
2021/04/22 04:30:54;;;;;;;5.07;2.70;;;;;20.70;101247.00;;;;2074437;28;20206;-68
2021/04/22 04:31:55;;;;;;;5.80;2.60;;;;;20.70;101243.00;;;;2078889;28;20217;-68
2021/04/22 04:32:55;;;;;;;6.90;2.70;;;;;20.70;101247.00;;;;2079034;28;20460;-68
2021/04/22 04:33:56;;;;;;;4.27;2.70;;;;;20.60;101244.00;;;;2077260;28;20217;-67
2021/04/22 04:34:56;;;;;;;5.60;3.10;;;;;20.60;101243.00;;;;2078195;28;20569;-67
2021/04/22 04:35:57;;;;;;;6.00;2.77;;;;;20.60;101243.00;;;;2078194;28;20437;-68
2021/04/22 04:36:57;;;;;;;6.77;3.10;;;;;20.60;101244.00;;;;2078178;28;20750;-68
2021/04/22 04:37:58;;;;;;;4.90;3.00;;;;;20.60;101247.00;;;;2079206;28;20572;-68
2021/04/22 04:38:58;;;;;;;6.40;3.00;;;;;20.60;101249.00;;;;2067433;28;20620;-67
2021/04/22 04:39:59;;;;;;;4.60;2.80;;;;;20.60;101251.00;;;;2077757;28;20245;-67
2021/04/22 04:40:59;;;;;;;7.03;3.00;;;;;20.60;101252.00;;;;2074974;28;20244;-67
2021/04/22 04:42:00;;;;;;;6.43;3.20;;;;;20.60;101254.00;;;;2078816;28;20608;-68
2021/04/22 04:43:00;;;;;;;7.20;2.93;;;;;20.60;101257.00;;;;2078889;28;20262;-67
2021/04/22 04:44:01;;;;;;;6.53;2.60;;;;;20.60;101234.00;;;;2078329;28;20789;-67
2021/04/22 04:45:02;;;;;;;6.93;3.13;;;;;20.60;101254.00;;;;2078307;28;20959;-67
2021/04/22 04:46:02;;;;;;;5.37;2.70;;;;;20.60;101255.00;;;;2078372;28;20217;-68
2021/04/22 04:47:03;;;;;;;4.90;2.90;;;;;20.60;101251.00;;;;2078299;28;20206;-67
2021/04/22 04:48:03;;;;;;;5.47;3.37;;;;;20.60;101258.00;;;;2068859;28;20218;-67
2021/04/22 04:49:04;;;;;;;8.50;3.00;;;;;20.60;101258.00;;;;2077928;28;20213;-67
2021/04/22 04:50:05;;;;;;;4.05;2.22;;;;;20.60;101264.00;;;;2078166;28;20584;-67
2021/04/22 04:51:06;;;;;;;6.90;3.03;;;;;20.60;101257.00;;;;2070177;28;20215;-68
2021/04/22 04:52:06;;;;;;;7.20;3.30;;;;;20.60;101264.00;;;;2069943;28;20466;-68
2021/04/22 04:53:06;;;;;;;4.80;3.07;;;;;20.60;101257.00;;;;2078122;28;20214;-68
2021/04/22 04:54:07;;;;;;;6.40;3.37;;;;;20.60;101262.00;;;;2070202;28;20206;-68
2021/04/22 04:55:08;;;;;;;6.77;3.00;;;;;20.60;101256.00;;;;2078175;28;20291;-67
2021/04/22 04:56:08;;;;;;;4.83;2.40;;;;;20.60;101261.00;;;;2086510;28;20212;-67
2021/04/22 04:57:09;;;;;;;5.30;2.60;;;;;20.60;101261.00;;;;2086430;28;21098;-67
2021/04/22 04:58:09;;;;;;;6.70;3.20;;;;;20.60;101256.00;;;;2078157;28;20217;-67
2021/04/22 04:59:09;;;;;;;4.20;2.40;;;;;20.60;101263.00;;;;2059812;28;21024;-68
2021/04/22 05:00:10;;;;;;;5.47;3.27;;;;;20.60;101262.00;;;;2078186;28;20712;-67